createdAt,value
2023-02-11T00:00:59.502Z,-1.38
2023-02-11T00:03:01.268Z,-1.39
2023-02-11T00:05:03.029Z,-1.62
2023-02-11T00:07:04.808Z,-1.86
2023-02-11T00:09:06.675Z,-2.27
2023-02-11T00:11:13.068Z,-2.45
2023-02-11T00:13:14.704Z,-2.48
2023-02-11T00:15:16.365Z,-2.36
2023-02-11T00:17:18.035Z,-2.35
2023-02-11T00:19:20.482Z,-2.30
2023-02-11T00:21:24.671Z,-2.30
2023-02-11T00:23:26.350Z,-2.38
2023-02-11T00:25:28.028Z,-2.42
2023-02-11T00:27:29.575Z,-2.67
2023-02-11T00:29:31.137Z,-2.57
2023-02-11T00:31:34.454Z,-2.42
2023-02-11T00:33:36.310Z,-2.29
2023-02-11T00:35:38.823Z,-2.14
2023-02-11T00:37:40.664Z,-2.06
2023-02-11T00:39:42.281Z,-1.99
2023-02-11T00:41:43.855Z,-1.97
2023-02-11T00:43:45.876Z,-1.92
2023-02-11T00:45:47.603Z,-1.95
2023-02-11T00:47:49.336Z,-2.42
2023-02-11T00:49:50.936Z,-2.47
2023-02-11T00:51:52.573Z,-2.38
2023-02-11T00:53:54.806Z,-2.35
2023-02-11T00:55:56.636Z,-2.52
2023-02-11T00:58:00.080Z,-2.56
2023-02-11T01:00:01.762Z,-2.43
2023-02-11T01:02:03.441Z,-2.34
2023-02-11T01:04:05.147Z,-2.40
2023-02-11T01:06:08.358Z,-2.47
2023-02-11T01:08:10.095Z,-2.52
2023-02-11T01:10:11.925Z,-2.41
2023-02-11T01:12:13.610Z,-2.38
2023-02-11T01:14:15.424Z,-2.36
2023-02-11T01:16:17.760Z,-2.27
2023-02-11T01:18:19.428Z,-2.21
2023-02-11T01:20:23.698Z,-2.36
2023-02-11T01:22:25.339Z,-2.39
2023-02-11T01:24:28.427Z,-2.33
2023-02-11T01:26:29.983Z,-2.34
2023-02-11T01:28:32.046Z,-2.37
2023-02-11T01:30:33.647Z,-2.57
2023-02-11T01:32:35.666Z,-2.98
2023-02-11T01:34:37.300Z,-3.27
2023-02-11T01:36:38.972Z,-3.38
2023-02-11T01:38:41.148Z,-3.42
2023-02-11T01:40:50.621Z,-3.47
2023-02-11T01:42:52.192Z,-3.46
2023-02-11T01:44:54.769Z,-3.37
2023-02-11T01:46:56.509Z,-3.18
2023-02-11T01:49:10.025Z,-3.01
2023-02-11T01:51:17.548Z,-2.80
2023-02-11T01:53:38.381Z,-2.64
2023-02-11T01:55:58.958Z,-2.54
2023-02-11T01:58:02.803Z,-2.61
2023-02-11T02:00:10.679Z,-2.72
2023-02-11T02:02:14.027Z,-2.76
2023-02-11T02:04:17.870Z,-2.79
2023-02-11T02:06:45.791Z,-3.15
2023-02-11T02:08:52.685Z,-3.14
2023-02-11T02:10:56.583Z,-3.20
2023-02-11T02:12:58.330Z,-3.28
2023-02-11T02:15:19.551Z,-3.40
2023-02-11T02:17:34.716Z,-3.33
2023-02-11T02:19:45.215Z,-3.17
2023-02-11T02:22:31.558Z,-2.98
2023-02-11T02:25:10.709Z,-2.97
2023-02-11T02:27:18.103Z,-2.93
2023-02-11T02:29:36.308Z,-2.86
2023-02-11T02:32:15.163Z,-2.78
2023-02-11T02:34:41.683Z,-2.74
2023-02-11T02:36:57.722Z,-2.72
2023-02-11T02:39:10.930Z,-2.73
2023-02-11T02:41:18.030Z,-2.70
2023-02-11T02:43:20.441Z,-2.69
2023-02-11T02:45:22.383Z,-2.76
2023-02-11T02:47:24.063Z,-2.77
2023-02-11T02:49:25.689Z,-2.77
2023-02-11T02:51:32.989Z,-2.89
2023-02-11T02:53:55.661Z,-2.84
2023-02-11T02:56:04.984Z,-2.80
2023-02-11T03:01:57.321Z,-2.83
2023-02-11T03:04:08.590Z,-2.74
2023-02-11T03:06:31.600Z,-2.78
2023-02-11T03:08:55.450Z,-2.76
2023-02-11T03:10:58.157Z,-2.73
2023-02-11T03:13:00.361Z,-2.75
2023-02-11T03:15:03.706Z,-2.66
2023-02-11T03:17:06.309Z,-2.82
2023-02-11T03:19:20.410Z,-2.80
2023-02-11T03:21:22.803Z,-2.80
2023-02-11T03:23:29.531Z,-2.80
2023-02-11T03:25:38.331Z,-2.75
2023-02-11T03:27:52.290Z,-2.72
2023-02-11T03:30:20.119Z,-2.83
2023-02-11T03:32:35.036Z,-3.04
2023-02-11T03:34:44.680Z,-3.15
2023-02-11T03:36:57.105Z,-3.18
2023-02-11T03:39:00.580Z,-3.24
2023-02-11T03:41:04.060Z,-3.38
2023-02-11T03:43:11.455Z,-3.47
2023-02-11T03:45:17.313Z,-3.65
2023-02-11T03:47:21.541Z,-4.01
2023-02-11T03:49:25.374Z,-4.03
2023-02-11T03:51:26.901Z,-4.10
2023-02-11T03:53:28.727Z,-4.06
2023-02-11T03:55:33.589Z,-4.10
2023-02-11T03:57:35.288Z,-4.07
2023-02-11T03:59:56.938Z,-4.08
2023-02-11T04:01:59.645Z,-3.98
2023-02-11T04:04:01.338Z,-3.84
2023-02-11T04:06:02.919Z,-3.68
2023-02-11T04:08:05.208Z,-3.63
2023-02-11T04:10:07.469Z,-3.82
2023-02-11T04:12:09.161Z,-3.89
2023-02-11T04:14:10.786Z,-4.16
2023-02-11T04:16:12.485Z,-4.33
2023-02-11T04:18:14.092Z,-4.15
2023-02-11T04:20:15.807Z,-3.98
2023-02-11T04:22:17.458Z,-4.00
2023-02-11T04:24:19.089Z,-4.18
2023-02-11T04:26:20.734Z,-4.34
2023-02-11T04:28:22.392Z,-4.67
2023-02-11T04:30:24.063Z,-4.72
2023-02-11T04:32:25.733Z,-4.66
2023-02-11T04:34:27.938Z,-4.51
2023-02-11T04:36:29.598Z,-4.36
2023-02-11T04:38:31.270Z,-4.40
2023-02-11T04:40:32.980Z,-4.24
2023-02-11T04:42:34.611Z,-4.17
2023-02-11T04:44:36.190Z,-4.14
2023-02-11T04:46:37.919Z,-4.00
2023-02-11T04:48:39.565Z,-4.07
2023-02-11T04:50:41.837Z,-4.04
2023-02-11T04:52:43.465Z,-4.02
2023-02-11T04:54:45.085Z,-3.94
2023-02-11T04:56:46.747Z,-3.83
2023-02-11T04:58:48.416Z,-3.74
2023-02-11T05:00:50.061Z,-3.75
2023-02-11T05:02:51.755Z,-3.76
2023-02-11T05:04:53.407Z,-3.74
2023-02-11T05:06:57.088Z,-3.64
2023-02-11T05:08:59.917Z,-3.59
2023-02-11T05:11:02.366Z,-3.65
2023-02-11T05:13:04.087Z,-3.85
2023-02-11T05:15:06.128Z,-4.15
2023-02-11T05:17:08.216Z,-4.37
2023-02-11T05:19:10.249Z,-4.49
2023-02-11T05:21:15.107Z,-4.44
2023-02-11T05:23:16.718Z,-4.50
2023-02-11T05:25:18.664Z,-4.54
2023-02-11T05:27:20.206Z,-4.79
2023-02-11T05:29:21.832Z,-4.87
2023-02-11T05:31:23.527Z,-4.77
2023-02-11T05:33:25.305Z,-4.62
2023-02-11T05:35:26.990Z,-4.51
2023-02-11T05:37:28.660Z,-4.56
2023-02-11T05:39:30.258Z,-4.45
2023-02-11T05:41:31.843Z,-4.23
2023-02-11T05:43:35.419Z,-4.10
2023-02-11T05:45:37.064Z,-4.03
2023-02-11T05:47:38.668Z,-3.81
2023-02-11T05:49:40.295Z,-3.88
2023-02-11T05:51:41.920Z,-3.94
2023-02-11T05:53:43.569Z,-4.11
2023-02-11T05:55:45.257Z,-4.19
2023-02-11T05:57:46.835Z,-4.42
2023-02-11T05:59:48.454Z,-4.70
2023-02-11T06:01:50.033Z,-4.54
2023-02-11T06:03:51.777Z,-4.63
2023-02-11T06:05:53.628Z,-4.81
2023-02-11T06:07:55.255Z,-4.72
2023-02-11T06:09:57.609Z,-4.70
2023-02-11T06:11:59.233Z,-4.71
2023-02-11T06:14:01.539Z,-4.56
2023-02-11T06:16:03.522Z,-4.49
2023-02-11T06:18:05.530Z,-4.41
2023-02-11T06:20:08.708Z,-4.48
2023-02-11T06:22:10.538Z,-4.42
2023-02-11T06:24:12.808Z,-4.49
2023-02-11T06:26:21.087Z,-4.40
2023-02-11T06:28:22.746Z,-4.32
2023-02-11T06:30:24.326Z,-4.23
2023-02-11T06:32:45.132Z,-4.14
2023-02-11T06:34:47.219Z,-3.94
2023-02-11T06:36:48.839Z,-3.86
2023-02-11T06:38:50.969Z,-3.81
2023-02-11T06:40:52.612Z,-4.00
2023-02-11T06:42:54.285Z,-4.34
2023-02-11T06:44:55.900Z,-4.35
2023-02-11T06:46:57.700Z,-4.17
2023-02-11T06:48:59.317Z,-4.22
2023-02-11T06:51:09.700Z,-4.27
2023-02-11T06:53:11.326Z,-4.14
2023-02-11T06:55:12.920Z,-4.10
2023-02-11T06:57:14.565Z,-4.22
2023-02-11T06:59:17.467Z,-4.21
2023-02-11T07:01:19.103Z,-4.47
2023-02-11T07:03:20.858Z,-4.40
2023-02-11T07:05:22.524Z,-4.39
2023-02-11T07:07:24.138Z,-4.39
2023-02-11T07:09:25.893Z,-4.27
2023-02-11T07:11:29.130Z,-4.46
2023-02-11T07:13:30.735Z,-4.40
2023-02-11T07:15:32.684Z,-4.28
2023-02-11T07:17:35.748Z,-3.91
2023-02-11T07:19:37.335Z,-3.60
2023-02-11T07:21:38.950Z,-3.58
2023-02-11T07:23:43.591Z,-3.45
2023-02-11T07:25:45.185Z,-3.27
2023-02-11T07:27:46.807Z,-3.10
2023-02-11T07:29:48.846Z,-2.94
2023-02-11T07:31:50.589Z,-2.89
2023-02-11T07:33:53.948Z,-2.71
2023-02-11T07:35:55.588Z,-2.53
2023-02-11T07:37:57.167Z,-2.29
2023-02-11T07:39:58.794Z,-2.24
2023-02-11T07:42:00.455Z,-2.75
2023-02-11T07:44:03.596Z,-2.63
2023-02-11T07:46:06.994Z,-2.71
2023-02-11T07:48:08.623Z,-2.91
2023-02-11T07:50:10.382Z,-2.75
2023-02-11T07:52:12.062Z,-2.44
2023-02-11T07:54:13.643Z,-2.78
2023-02-11T07:56:16.310Z,-2.52
2023-02-11T07:58:17.930Z,-2.64
2023-02-11T08:00:21.169Z,-2.31
2023-02-11T08:02:22.999Z,-1.97
2023-02-11T08:04:24.675Z,-1.77
2023-02-11T08:06:29.306Z,-1.60
2023-02-11T08:08:30.942Z,-1.44
2023-02-11T08:10:32.475Z,-1.44
2023-02-11T08:12:34.101Z,-1.21
2023-02-11T08:14:35.866Z,-1.09
2023-02-11T08:16:39.045Z,-1.07
2023-02-11T08:18:40.810Z,-1.08
2023-02-11T08:20:42.468Z,-1.11
2023-02-11T08:22:44.064Z,-0.96
2023-02-11T08:24:45.832Z,-0.91
2023-02-11T08:26:47.425Z,-0.77
2023-02-11T08:28:50.803Z,-0.71
2023-02-11T08:30:52.759Z,-0.60
2023-02-11T08:32:54.619Z,-1.01
2023-02-11T08:34:56.195Z,-1.33
2023-02-11T08:36:57.823Z,-1.49
2023-02-11T08:39:17.306Z,-1.67
2023-02-11T08:41:20.021Z,-1.55
2023-02-11T08:43:21.701Z,-1.14
2023-02-11T08:45:23.286Z,-1.15
2023-02-11T08:47:24.886Z,-1.39
2023-02-11T08:49:26.565Z,-1.25
2023-02-11T08:51:30.482Z,-1.24
2023-02-11T08:53:32.050Z,-0.90
2023-02-11T08:55:33.672Z,-0.54
2023-02-11T08:57:35.286Z,-0.23
2023-02-11T08:59:37.160Z,-0.10
2023-02-11T09:01:38.862Z,-0.52
2023-02-11T09:03:40.582Z,-0.62
2023-02-11T09:05:43.393Z,-0.83
2023-02-11T09:07:45.092Z,-0.53
2023-02-11T09:09:46.770Z,-0.47
2023-02-11T09:11:48.710Z,-0.70
2023-02-11T09:13:53.283Z,-0.96
2023-02-11T09:15:55.993Z,-1.05
2023-02-11T09:17:58.164Z,-1.24
2023-02-11T09:19:59.828Z,-0.89
2023-02-11T09:22:01.704Z,-0.99
2023-02-11T09:24:03.526Z,-0.81
2023-02-11T09:26:12.805Z,-1.23
2023-02-11T09:28:14.570Z,-1.25
2023-02-11T09:30:16.210Z,-0.85
2023-02-11T09:32:18.578Z,-0.60
2023-02-11T09:34:20.261Z,-0.82
2023-02-11T09:36:28.806Z,-0.86
2023-02-11T09:38:30.551Z,-0.92
2023-02-11T09:40:32.147Z,-0.72
2023-02-11T09:42:50.674Z,-0.83
2023-02-11T09:44:52.697Z,-0.76
2023-02-11T09:47:04.568Z,-0.66
2023-02-11T09:49:07.069Z,-0.39
2023-02-11T09:51:39.207Z,-0.18
2023-02-11T09:53:42.500Z,-0.15
2023-02-11T09:55:47.137Z,-0.22
2023-02-11T09:57:48.944Z,-0.15
2023-02-11T09:59:50.583Z,-0.31
2023-02-11T10:02:00.841Z,-0.10
2023-02-11T10:04:18.782Z,-0.06
2023-02-11T10:06:29.325Z,0.40
2023-02-11T10:08:36.387Z,0.24
2023-02-11T10:10:41.110Z,0.63
2023-02-11T10:12:52.542Z,1.00
2023-02-11T10:15:28.132Z,1.37
2023-02-11T10:17:54.737Z,1.48
2023-02-11T10:20:02.197Z,1.04
2023-02-11T10:22:09.733Z,0.53
2023-02-11T10:24:13.114Z,0.58
2023-02-11T10:26:19.157Z,0.98
2023-02-11T10:28:27.478Z,1.28
2023-02-11T10:30:38.513Z,1.56
2023-02-11T10:32:49.814Z,1.98
2023-02-11T10:34:52.521Z,2.13
2023-02-11T10:36:54.219Z,2.05
2023-02-11T10:38:56.050Z,1.44
2023-02-11T10:40:57.661Z,1.78
2023-02-11T10:43:03.620Z,1.92
2023-02-11T10:45:07.361Z,2.13
2023-02-11T10:47:20.941Z,2.33
2023-02-11T10:49:41.115Z,2.59
2023-02-11T10:51:42.733Z,2.82
2023-02-11T10:53:49.051Z,2.81
2023-02-11T10:55:55.431Z,2.40
2023-02-11T10:57:59.432Z,1.96
2023-02-11T11:00:27.744Z,1.92
2023-02-11T11:02:35.361Z,1.64
2023-02-11T11:04:41.448Z,1.09
2023-02-11T11:06:43.097Z,1.12
2023-02-11T11:08:47.363Z,1.25
2023-02-11T11:11:03.872Z,1.55
2023-02-11T11:13:05.475Z,1.85
2023-02-11T11:15:10.225Z,2.15
2023-02-11T11:17:18.920Z,1.96
2023-02-11T11:19:22.964Z,2.35
2023-02-11T11:21:40.434Z,2.11
2023-02-11T11:23:57.579Z,2.13
2023-02-11T11:26:04.307Z,2.39
2023-02-11T11:28:05.961Z,2.40
2023-02-11T11:30:16.867Z,2.18
2023-02-11T11:32:28.213Z,2.13
2023-02-11T11:34:29.815Z,2.15
2023-02-11T11:36:35.100Z,1.78
2023-02-11T11:38:42.899Z,1.50
2023-02-11T11:40:44.506Z,1.93
2023-02-11T11:42:46.156Z,2.17
2023-02-11T11:44:59.195Z,2.59
2023-02-11T11:47:13.451Z,2.63
2023-02-11T11:49:29.391Z,2.21
2023-02-11T11:51:32.264Z,2.21
2023-02-11T11:53:45.909Z,2.28
2023-02-11T11:56:00.507Z,1.98
2023-02-11T11:58:02.317Z,2.12
2023-02-11T12:00:04.877Z,2.24
2023-02-11T12:02:28.932Z,2.42
2023-02-11T12:04:56.497Z,2.77
2023-02-11T12:07:25.941Z,2.64
2023-02-11T12:09:57.272Z,2.91
2023-02-11T12:12:23.658Z,2.89
2023-02-11T12:14:47.066Z,2.81
2023-02-11T12:17:06.818Z,2.49
2023-02-11T12:19:36.145Z,2.51
2023-02-11T12:21:54.329Z,2.57
2023-02-11T12:24:25.095Z,2.65
2023-02-11T12:27:12.801Z,2.61
2023-02-11T12:29:32.788Z,2.12
2023-02-11T12:31:59.440Z,2.22
2023-02-11T12:34:22.509Z,2.50
2023-02-11T12:36:24.060Z,2.78
2023-02-11T12:38:56.595Z,2.90
2023-02-11T12:41:54.011Z,2.87
2023-02-11T12:43:55.865Z,3.10
2023-02-11T12:46:37.162Z,2.54
2023-02-11T12:48:55.533Z,2.27
2023-02-11T12:51:32.047Z,2.16
2023-02-11T12:54:01.650Z,2.23
2023-02-11T12:56:15.405Z,2.38
2023-02-11T12:58:25.402Z,2.70
2023-02-11T13:01:11.151Z,2.99
2023-02-11T13:03:24.678Z,3.29
2023-02-11T13:05:32.108Z,2.99
2023-02-11T13:07:45.587Z,2.75
2023-02-11T13:10:22.680Z,2.81
2023-02-11T13:12:43.749Z,2.57
2023-02-11T13:14:46.112Z,2.84
2023-02-11T13:16:50.259Z,3.10
2023-02-11T13:19:10.537Z,3.32
2023-02-11T13:21:14.967Z,2.74
2023-02-11T13:23:43.367Z,2.70
2023-02-11T13:25:53.495Z,2.54
2023-02-11T13:28:00.446Z,2.67
2023-02-11T13:30:22.041Z,2.63
2023-02-11T13:32:23.752Z,2.64
2023-02-11T13:34:43.256Z,2.55
2023-02-11T13:36:54.565Z,2.68
2023-02-11T13:38:59.889Z,2.80
2023-02-11T13:41:11.231Z,2.81
2023-02-11T13:43:22.755Z,3.00
2023-02-11T13:45:27.000Z,2.90
2023-02-11T13:47:33.028Z,2.83
2023-02-11T13:49:42.702Z,2.89
2023-02-11T13:51:44.446Z,2.96
2023-02-11T13:53:54.569Z,2.91
2023-02-11T13:56:10.178Z,3.06
2023-02-11T13:58:12.099Z,3.20
2023-02-11T14:00:33.955Z,3.39
2023-02-11T14:02:55.298Z,3.30
2023-02-11T14:05:24.575Z,3.18
2023-02-11T14:07:50.642Z,3.23
2023-02-11T14:09:57.065Z,3.35
2023-02-11T14:12:30.774Z,3.14
2023-02-11T14:14:33.969Z,2.96
2023-02-11T14:16:38.339Z,2.93
2023-02-11T14:18:48.984Z,2.97
2023-02-11T14:20:51.348Z,3.16
2023-02-11T14:22:53.564Z,3.24
2023-02-11T14:24:55.176Z,3.24
2023-02-11T14:27:00.462Z,2.91
2023-02-11T14:29:17.178Z,3.03
2023-02-11T14:31:22.980Z,3.21
2023-02-11T14:33:42.912Z,3.40
2023-02-11T14:36:00.919Z,3.17
2023-02-11T14:38:41.378Z,3.05
2023-02-11T14:41:20.861Z,3.01
2023-02-11T14:43:29.695Z,2.99
2023-02-11T14:45:31.520Z,3.21
2023-02-11T14:47:54.296Z,3.27
2023-02-11T14:49:56.278Z,3.22
2023-02-11T14:52:07.712Z,3.35
2023-02-11T14:54:15.368Z,3.53
2023-02-11T14:56:34.612Z,3.62
2023-02-11T14:58:36.215Z,3.68
2023-02-11T15:01:08.902Z,3.54
2023-02-11T15:03:44.744Z,3.60
2023-02-11T15:05:46.403Z,3.56
2023-02-11T15:07:50.797Z,3.48
2023-02-11T15:09:53.876Z,3.48
2023-02-11T15:11:56.017Z,3.50
2023-02-11T15:14:01.604Z,3.46
2023-02-11T15:16:08.549Z,3.53
2023-02-11T15:18:21.344Z,3.47
2023-02-11T15:20:27.054Z,3.52
2023-02-11T15:22:33.053Z,3.59
2023-02-11T15:24:35.746Z,3.72
2023-02-11T15:26:37.400Z,3.75
2023-02-11T15:28:39.068Z,3.78
2023-02-11T15:30:40.678Z,3.69
2023-02-11T15:32:45.002Z,3.51
2023-02-11T15:34:47.979Z,3.25
2023-02-11T15:36:49.599Z,3.17
2023-02-11T15:39:27.783Z,3.01
2023-02-11T15:41:37.559Z,2.45
2023-02-11T15:43:47.151Z,2.35
2023-02-11T15:45:51.429Z,2.24
2023-02-11T15:47:56.407Z,2.11
2023-02-11T15:49:58.044Z,2.08
2023-02-11T15:51:59.722Z,1.97
2023-02-11T15:54:17.085Z,2.04
2023-02-11T15:56:43.332Z,1.94
2023-02-11T15:58:47.573Z,1.88
2023-02-11T16:00:51.735Z,1.84
2023-02-11T16:02:53.930Z,1.83
2023-02-11T16:04:58.429Z,1.91
2023-02-11T16:07:00.148Z,1.85
2023-02-11T16:09:03.737Z,1.82
2023-02-11T16:11:09.113Z,1.88
2023-02-11T16:13:10.716Z,1.85
2023-02-11T16:15:42.049Z,1.81
2023-02-11T16:17:44.234Z,1.77
2023-02-11T16:19:48.106Z,1.86
2023-02-11T16:21:49.574Z,1.67
2023-02-11T16:23:54.012Z,1.79
2023-02-11T16:26:08.997Z,1.81
2023-02-11T16:28:15.392Z,1.81
2023-02-11T16:30:39.074Z,1.85
2023-02-11T16:32:40.684Z,1.85
2023-02-11T16:34:42.462Z,1.92
2023-02-11T16:36:44.561Z,1.89
2023-02-11T16:38:46.145Z,1.80
2023-02-11T16:40:50.045Z,1.86
2023-02-11T16:42:53.536Z,1.88
2023-02-11T16:44:55.170Z,1.82
2023-02-11T16:46:59.582Z,1.77
2023-02-11T16:49:11.258Z,1.80
2023-02-11T16:51:13.219Z,1.91
2023-02-11T16:53:19.156Z,1.86
2023-02-11T16:55:22.061Z,1.84
2023-02-11T16:57:28.072Z,1.85
2023-02-11T16:59:31.211Z,1.79
2023-02-11T17:01:33.254Z,1.84
2023-02-11T17:03:40.413Z,1.92
2023-02-11T17:05:54.677Z,1.95
2023-02-11T17:07:57.087Z,1.85
2023-02-11T17:09:59.008Z,1.88
2023-02-11T17:12:00.819Z,1.84
2023-02-11T17:14:02.415Z,1.78
2023-02-11T17:16:04.155Z,1.79
2023-02-11T17:18:05.823Z,1.74
2023-02-11T17:20:08.657Z,1.65
2023-02-11T17:22:11.205Z,1.73
2023-02-11T17:24:14.308Z,1.75
2023-02-11T17:26:15.959Z,1.76
2023-02-11T17:28:17.699Z,1.77
2023-02-11T17:30:19.615Z,1.81
2023-02-11T17:32:21.355Z,1.74
2023-02-11T17:34:23.282Z,1.70
2023-02-11T17:36:24.861Z,1.71
2023-02-11T17:38:26.484Z,1.71
2023-02-11T17:40:28.149Z,1.72
2023-02-11T17:42:31.299Z,1.71
2023-02-11T17:44:33.653Z,1.66
2023-02-11T17:46:35.583Z,1.67
2023-02-11T17:48:40.892Z,1.70
2023-02-11T17:50:42.485Z,1.76
2023-02-11T17:52:44.137Z,1.78
2023-02-11T17:54:45.988Z,1.79
2023-02-11T17:56:50.516Z,1.66
2023-02-11T17:58:53.302Z,1.56
2023-02-11T18:00:58.701Z,1.55
2023-02-11T18:03:03.782Z,1.49
2023-02-11T18:05:06.026Z,1.47
2023-02-11T18:07:07.689Z,1.44
2023-02-11T18:09:09.439Z,1.39
2023-02-11T18:11:12.393Z,1.48
2023-02-11T18:13:13.990Z,1.48
2023-02-11T18:15:15.921Z,1.39
2023-02-11T18:17:17.513Z,1.18
2023-02-11T18:19:19.556Z,1.11
2023-02-11T18:21:22.853Z,1.08
2023-02-11T18:23:24.790Z,1.12
2023-02-11T18:25:26.392Z,1.14
2023-02-11T18:27:28.208Z,1.11
2023-02-11T18:29:29.847Z,0.94
2023-02-11T18:31:31.920Z,1.04
2023-02-11T18:33:33.863Z,1.05
2023-02-11T18:35:39.143Z,0.90
2023-02-11T18:37:41.938Z,0.91
2023-02-11T18:39:43.592Z,0.99
2023-02-11T18:41:45.745Z,0.95
2023-02-11T18:43:47.381Z,0.91
2023-02-11T18:45:50.181Z,0.85
2023-02-11T18:47:51.996Z,0.82
2023-02-11T18:49:53.671Z,0.71
2023-02-11T18:51:55.405Z,0.51
2023-02-11T18:53:57.002Z,0.36
2023-02-11T18:55:58.605Z,0.44
2023-02-11T18:58:00.182Z,0.45
2023-02-11T19:00:01.830Z,0.59
2023-02-11T19:02:03.437Z,0.78
2023-02-11T19:04:05.828Z,0.86
2023-02-11T19:06:08.350Z,0.94
2023-02-11T19:08:10.803Z,0.99
2023-02-11T19:10:13.733Z,1.05
2023-02-11T19:12:15.411Z,1.12
2023-02-11T19:14:22.822Z,1.17
2023-02-11T19:16:24.814Z,1.28
2023-02-11T19:18:26.433Z,1.31
2023-02-11T19:20:28.023Z,1.40
2023-02-11T19:22:29.613Z,1.45
2023-02-11T19:24:31.326Z,1.42
2023-02-11T19:26:33.142Z,1.45
2023-02-11T19:28:37.114Z,1.48
2023-02-11T19:30:38.968Z,1.58
2023-02-11T19:32:40.582Z,1.56
2023-02-11T19:34:42.529Z,1.58
2023-02-11T19:36:44.257Z,1.54
2023-02-11T19:38:45.950Z,1.50
2023-02-11T19:40:55.773Z,1.51
2023-02-11T19:42:57.382Z,1.40
2023-02-11T19:44:59.014Z,1.50
2023-02-11T19:47:01.266Z,1.50
2023-02-11T19:49:03.870Z,1.55
2023-02-11T19:51:12.064Z,1.57
2023-02-11T19:53:14.684Z,1.59
2023-02-11T19:55:16.418Z,1.58
2023-02-11T19:57:18.142Z,1.61
2023-02-11T19:59:20.233Z,1.62
2023-02-11T20:01:23.774Z,1.62
2023-02-11T20:03:25.391Z,1.53
2023-02-11T20:05:27.126Z,1.56
2023-02-11T20:07:29.695Z,1.56
2023-02-11T20:09:31.831Z,1.60
2023-02-11T20:11:34.622Z,1.55
2023-02-11T20:13:37.817Z,1.45
2023-02-11T20:15:39.506Z,1.47
2023-02-11T20:17:41.150Z,1.50
2023-02-11T20:19:42.762Z,1.39
2023-02-11T20:21:47.066Z,1.28
2023-02-11T20:23:50.162Z,1.11
2023-02-11T20:25:51.916Z,1.09
2023-02-11T20:27:53.892Z,0.91
2023-02-11T20:29:55.809Z,0.99
2023-02-11T20:31:57.646Z,1.04
2023-02-11T20:34:00.353Z,1.15
2023-02-11T20:36:06.445Z,1.21
2023-02-11T20:38:08.118Z,1.25
2023-02-11T20:40:10.102Z,1.29
2023-02-11T20:42:12.195Z,1.33
2023-02-11T20:44:14.501Z,1.33
2023-02-11T20:46:17.587Z,1.34
2023-02-11T20:48:19.275Z,1.38
2023-02-11T20:50:20.948Z,1.37
2023-02-11T20:52:22.515Z,1.14
2023-02-11T20:54:25.691Z,0.90
2023-02-11T20:56:32.971Z,0.87
2023-02-11T20:58:35.983Z,0.81
2023-02-11T21:00:37.814Z,0.72
2023-02-11T21:02:39.421Z,0.66
2023-02-11T21:04:41.034Z,0.46
2023-02-11T21:06:45.713Z,0.36
2023-02-11T21:08:47.628Z,0.50
2023-02-11T21:10:49.297Z,0.39
2023-02-11T21:12:50.881Z,0.51
2023-02-11T21:14:54.894Z,0.66
2023-02-11T21:16:56.677Z,0.77
2023-02-11T21:18:58.656Z,0.87
2023-02-11T21:21:00.965Z,0.58
2023-02-11T21:23:02.519Z,0.44
2023-02-11T21:25:06.146Z,0.48
2023-02-11T21:27:07.772Z,0.46
2023-02-11T21:29:09.953Z,0.40
2023-02-11T21:31:21.840Z,0.26
2023-02-11T21:33:24.325Z,0.15
2023-02-11T21:35:26.105Z,0.10
2023-02-11T21:37:27.719Z,0.25
2023-02-11T21:39:29.360Z,0.31
2023-02-11T21:41:31.455Z,0.37
2023-02-11T21:43:33.162Z,0.27
2023-02-11T21:45:34.760Z,0.31
2023-02-11T21:47:36.362Z,0.48
2023-02-11T21:49:38.078Z,0.71
2023-02-11T21:51:39.720Z,0.92
2023-02-11T21:53:41.363Z,1.12
2023-02-11T21:55:43.447Z,1.31
2023-02-11T21:57:44.995Z,1.50
2023-02-11T21:59:46.640Z,1.62
2023-02-11T22:01:48.303Z,1.71
2023-02-11T22:03:49.995Z,1.74
2023-02-11T22:05:51.717Z,1.80
2023-02-11T22:07:53.304Z,1.87
2023-02-11T22:09:55.751Z,1.80
2023-02-11T22:11:57.450Z,1.82
2023-02-11T22:13:59.353Z,1.92
2023-02-11T22:16:03.433Z,1.97
2023-02-11T22:18:05.102Z,1.97
2023-02-11T22:20:08.320Z,2.03
2023-02-11T22:22:09.923Z,2.00
2023-02-11T22:24:11.545Z,1.97
2023-02-11T22:26:16.958Z,1.92
2023-02-11T22:28:18.690Z,1.90
2023-02-11T22:30:20.540Z,1.78
2023-02-11T22:32:22.170Z,1.64
2023-02-11T22:34:23.795Z,1.09
2023-02-11T22:36:27.640Z,0.70
2023-02-11T22:38:31.121Z,0.54
2023-02-11T22:40:32.753Z,0.42
2023-02-11T22:42:34.408Z,0.38
2023-02-11T22:44:37.532Z,0.50
2023-02-11T22:46:40.014Z,0.68
2023-02-11T22:48:41.788Z,0.81
2023-02-11T22:50:43.424Z,0.47
2023-02-11T22:52:45.028Z,0.26
2023-02-11T22:54:46.699Z,0.44
2023-02-11T22:56:50.768Z,0.53
2023-02-11T22:58:53.784Z,0.71
2023-02-11T23:00:55.372Z,0.90
2023-02-11T23:02:57.074Z,1.06
2023-02-11T23:04:59.489Z,0.95
2023-02-11T23:07:01.040Z,0.82
2023-02-11T23:09:07.813Z,0.81
2023-02-11T23:11:15.549Z,0.94
2023-02-11T23:13:17.146Z,0.87
2023-02-11T23:15:18.739Z,0.45
2023-02-11T23:17:20.392Z,0.54
2023-02-11T23:19:22.042Z,0.73
2023-02-11T23:21:27.256Z,0.95
2023-02-11T23:23:28.880Z,1.09
2023-02-11T23:25:30.923Z,1.17
2023-02-11T23:27:32.607Z,1.29
2023-02-11T23:29:34.324Z,1.34
2023-02-11T23:31:39.795Z,1.41
2023-02-11T23:33:41.875Z,1.47
2023-02-11T23:35:43.463Z,1.46
2023-02-11T23:37:45.038Z,1.49
2023-02-11T23:39:46.599Z,1.50
2023-02-11T23:41:48.192Z,1.48
2023-02-11T23:43:55.018Z,1.54
2023-02-11T23:45:57.157Z,1.47
2023-02-11T23:47:59.035Z,1.40
2023-02-11T23:50:00.800Z,1.48
2023-02-11T23:52:02.473Z,1.46
2023-02-11T23:54:04.287Z,1.42
2023-02-11T23:56:11.459Z,1.49
2023-02-11T23:58:14.824Z,1.38
